« Back
NWS Peachtree City, Ga » Text Product » AHN Terminal Aerodrome Forecast


Printer-friendly Version
Current Version              Previous Versions:   1  2  3  4  5  6  7  8  9  

Terminal Aerodrome Forecast

692
FTAK31 PAJN 261130
TAFAHN
TAF
PAHN 261130Z 2612/2712 VRB03KT P6SM OVC035
     FM261500 30007KT P6SM SCT060
     FM262000 12008KT P6SM VCSH BKN060
     FM270600 30006KT P6SM SCT060
      AMD LTD TO CLD VIS AND WIND=

USA.gov is the U.S. government's official web portal to all federal, state and local government web resources and services.